Time;durP1;ratioP1;P1;durP2;ratioP2;P2;SDS_P1;SDS_P2;PMS_P1;PMS_P2;Temp;Humidity;BMP_temperature;BMP_pressure;BME280_temperature;BME280_humidity;BME280_pressure;Samples;Min_cycle;Max_cycle;Signal;HPM_P1;HPM_P2
2023/10/08 00:01:21;;;;;;;8.43;4.15;;;;;;;16.29;100.00;101085.44;5075445;28;20121;-75
2023/10/08 00:03:53;;;;;;;8.48;4.45;;;;;;;16.26;100.00;101079.41;5090482;28;20066;-74
2023/10/08 00:06:22;;;;;;;6.50;4.10;;;;;;;16.28;100.00;101088.19;5076471;28;20048;-75
2023/10/08 00:08:51;;;;;;;7.53;3.85;;;;;;;16.29;100.00;101096.13;5079847;28;20067;-75
2023/10/08 00:11:22;;;;;;;7.95;4.38;;;;;;;16.33;100.00;101097.66;5080945;28;20055;-77
2023/10/08 00:13:56;;;;;;;9.73;4.68;;;;;;;16.18;100.00;101066.50;5088635;28;20036;-75
2023/10/08 00:16:28;;;;;;;9.73;4.40;;;;;;;16.40;100.00;101099.00;5072052;28;21221;-75
2023/10/08 00:19:07;;;;;;;7.13;4.10;;;;;;;16.40;100.00;101101.69;5095427;28;20066;-75
2023/10/08 00:21:37;;;;;;;6.85;4.30;;;;;;;16.38;100.00;101095.56;5071997;28;22001;-75
2023/10/08 00:24:09;;;;;;;6.32;4.13;;;;;;;16.38;100.00;101089.34;5081008;28;20078;-75
2023/10/08 00:26:41;;;;;;;7.13;4.47;;;;;;;16.38;100.00;101073.31;5061586;28;20125;-75
2023/10/08 00:29:17;;;;;;;9.80;4.75;;;;;;;16.31;100.00;101062.16;5097141;28;20096;-73
2023/10/08 00:31:47;;;;;;;8.10;3.85;;;;;;;16.39;100.00;101083.91;5082618;28;20049;-74
2023/10/08 00:34:20;;;;;;;;;;;;;;;16.40;100.00;101093.66;5074928;28;20587;-76
2023/10/08 00:36:49;;;;;;;10.88;4.60;;;;;;;16.33;100.00;101086.97;5078172;28;20334;-76
2023/10/08 00:39:22;;;;;;;8.80;4.72;;;;;;;16.34;100.00;101098.53;5075248;28;20040;-74
2023/10/08 00:41:58;;;;;;;7.50;4.53;;;;;;;16.36;100.00;101092.13;5069543;28;20048;-75
2023/10/08 00:44:30;;;;;;;8.43;4.93;;;;;;;16.41;100.00;101083.81;5088135;28;20046;-75
2023/10/08 00:47:01;;;;;;;6.88;4.22;;;;;;;16.40;100.00;101079.44;5073614;28;20052;-76
2023/10/08 00:49:54;;;;;;;8.63;4.25;;;;;;;16.40;100.00;101079.44;5057128;28;20439;-76
2023/10/08 00:52:40;;;;;;;7.95;4.25;;;;;;;16.44;100.00;101086.31;5054604;28;20101;-75
2023/10/08 00:55:28;;;;;;;7.35;4.07;;;;;;;16.52;100.00;101070.69;5073072;28;20195;-75
2023/10/08 00:58:08;;;;;;;8.35;4.53;;;;;;;16.50;100.00;101069.91;5073246;28;20050;-75
2023/10/08 01:00:41;;;;;;;8.15;4.15;;;;;;;16.65;100.00;101065.47;5088442;28;20044;-75
2023/10/08 01:03:16;;;;;;;8.48;4.32;;;;;;;16.59;100.00;101061.31;5072869;28;20043;-75
2023/10/08 01:05:46;;;;;;;6.78;4.07;;;;;;;16.54;100.00;101057.19;5073728;28;20052;-74
2023/10/08 01:08:22;;;;;;;9.52;4.38;;;;;;;16.53;100.00;101060.84;5076542;28;20416;-75
2023/10/08 01:11:00;;;;;;;9.75;4.35;;;;;;;16.53;100.00;101059.00;5059091;28;20051;-76
2023/10/08 01:13:36;;;;;;;7.63;4.60;;;;;;;16.49;100.00;101055.69;5061746;28;20485;-75
2023/10/08 01:16:09;;;;;;;9.55;4.78;;;;;;;16.47;100.00;101064.75;5077291;28;20052;-76
2023/10/08 01:18:43;;;;;;;9.13;4.97;;;;;;;16.44;100.00;101067.59;5083140;28;20119;-76
2023/10/08 01:21:29;;;;;;;8.00;4.65;;;;;;;16.42;100.00;101064.16;5056740;28;20048;-74
2023/10/08 01:24:00;;;;;;;7.88;4.80;;;;;;;16.32;100.00;101058.53;5079399;28;20064;-75
2023/10/08 01:26:31;;;;;;;6.75;4.40;;;;;;;16.33;100.00;101070.94;5048181;28;20134;-75
2023/10/08 01:29:02;;;;;;;6.72;4.38;;;;;;;16.33;100.00;101065.59;5062156;28;20055;-75
2023/10/08 01:31:36;;;;;;;6.78;3.90;;;;;;;16.32;100.00;101071.88;5070335;28;20442;-77
2023/10/08 01:34:04;;;;;;;7.63;4.82;;;;;;;16.34;100.00;101083.34;5068691;28;20058;-74
2023/10/08 01:36:36;;;;;;;8.98;4.45;;;;;;;16.36;100.00;101085.94;5079052;28;20067;-76
2023/10/08 01:39:06;;;;;;;5.93;3.83;;;;;;;16.34;100.00;101104.72;5059113;28;20454;-75
2023/10/08 01:41:40;;;;;;;8.88;4.70;;;;;;;16.42;100.00;101099.78;5090277;28;20059;-75
2023/10/08 01:44:09;;;;;;;8.38;4.45;;;;;;;16.41;100.00;101098.06;5093728;28;20075;-76
2023/10/08 01:46:40;;;;;;;7.18;4.15;;;;;;;16.38;100.00;101100.91;5096574;28;20036;-75
2023/10/08 01:49:14;;;;;;;7.50;4.40;;;;;;;16.33;100.00;101107.50;5080556;28;20469;-76
2023/10/08 01:51:46;;;;;;;7.13;4.13;;;;;;;16.28;100.00;101094.41;5058563;28;20097;-75
2023/10/08 01:54:21;;;;;;;9.55;4.80;;;;;;;16.33;100.00;101099.47;5074475;28;20179;-76
2023/10/08 01:56:51;;;;;;;7.03;4.68;;;;;;;16.23;100.00;101085.78;5083905;28;20044;-76
2023/10/08 01:59:20;;;;;;;11.15;4.07;;;;;;;16.23;100.00;101088.44;5080465;28;20047;-77
2023/10/08 02:01:52;;;;;;;8.52;4.50;;;;;;;16.28;100.00;101082.84;5078220;28;20074;-76
2023/10/08 02:04:26;;;;;;;9.50;4.20;;;;;;;16.32;100.00;101095.94;5082293;28;20052;-76
2023/10/08 02:07:14;;;;;;;6.47;4.00;;;;;;;16.13;100.00;101060.56;5087283;28;20036;-76
2023/10/08 02:09:46;;;;;;;6.57;3.75;;;;;;;16.30;100.00;101100.50;5092068;28;20040;-74
2023/10/08 02:12:16;;;;;;;8.10;4.28;;;;;;;16.29;100.00;101095.25;5085709;28;20048;-76
2023/10/08 02:14:45;;;;;;;8.32;4.32;;;;;;;16.31;100.00;101090.69;5101007;28;20423;-75
2023/10/08 02:17:15;;;;;;;7.97;4.38;;;;;;;16.30;100.00;101094.31;5087130;28;20056;-75
2023/10/08 02:19:42;;;;;;;8.75;4.20;;;;;;;16.35;100.00;101085.06;5083334;28;20044;-75
2023/10/08 02:22:13;;;;;;;10.02;4.40;;;;;;;16.36;100.00;101076.09;5080063;28;20040;-75
2023/10/08 02:24:50;;;;;;;9.77;4.28;;;;;;;16.36;100.00;101064.56;5082188;28;20052;-76
2023/10/08 02:27:20;;;;;;;9.48;4.05;;;;;;;16.26;100.00;101032.16;5089492;28;20155;-76
2023/10/08 02:29:48;;;;;;;9.82;4.82;;;;;;;16.36;100.00;101052.06;5085529;28;20048;-76
2023/10/08 02:32:16;;;;;;;10.52;4.00;;;;;;;16.27;100.00;101049.06;5076214;28;20049;-77
2023/10/08 02:34:46;;;;;;;11.65;4.75;;;;;;;16.31;100.00;101074.66;5082266;28;20744;-75
2023/10/08 02:37:15;;;;;;;7.57;4.38;;;;;;;16.26;100.00;101074.91;5080761;28;20048;-75
2023/10/08 02:39:44;;;;;;;9.32;4.40;;;;;;;16.24;100.00;101074.13;5093975;28;20056;-75
2023/10/08 02:42:14;;;;;;;7.15;4.30;;;;;;;16.18;100.00;101053.16;5075618;28;20054;-75
2023/10/08 02:44:43;;;;;;;9.10;4.88;;;;;;;16.18;100.00;101054.97;5059381;28;20062;-76
2023/10/08 02:47:13;;;;;;;7.82;4.40;;;;;;;16.19;100.00;101051.34;5075408;28;20060;-75
2023/10/08 02:49:42;;;;;;;9.15;4.50;;;;;;;16.17;100.00;101054.09;5072295;28;20078;-76
2023/10/08 02:52:12;;;;;;;9.93;4.43;;;;;;;16.19;100.00;101056.69;5091181;28;20713;-76
2023/10/08 02:54:41;;;;;;;9.52;4.72;;;;;;;16.14;100.00;101064.97;5082496;28;20103;-76
2023/10/08 02:57:14;;;;;;;9.18;4.97;;;;;;;16.18;100.00;101071.84;5076712;28;20089;-75
2023/10/08 02:59:44;;;;;;;8.75;4.88;;;;;;;16.17;100.00;101087.97;5057715;28;20043;-75
2023/10/08 03:02:18;;;;;;;7.35;4.15;;;;;;;16.15;100.00;101104.09;5068360;28;20054;-75
2023/10/08 03:04:52;;;;;;;7.28;4.22;;;;;;;16.03;100.00;101083.44;5075976;28;20043;-75
2023/10/08 03:07:31;;;;;;;10.55;5.22;;;;;;;16.14;100.00;101081.00;5071954;28;20078;-75
2023/10/08 03:10:06;;;;;;;8.37;4.27;;;;;;;16.16;100.00;101079.09;5073850;28;20044;-74
2023/10/08 03:12:34;;;;;;;8.55;4.82;;;;;;;16.18;100.00;101082.53;5068778;28;20077;-76
2023/10/08 03:15:27;;;;;;;11.88;5.00;;;;;;;16.26;100.00;101095.44;5095402;28;20040;-75
2023/10/08 03:17:57;;;;;;;8.32;4.75;;;;;;;16.25;100.00;101083.88;5069834;28;20052;-75
2023/10/08 03:23:22;;;;;;;12.60;5.00;;;;;;;16.21;100.00;101125.13;5071113;28;19965;-75
2023/10/08 03:25:57;;;;;;;;;;;;;;;16.19;100.00;101118.16;5101782;28;20072;-76
2023/10/08 03:28:27;;;;;;;8.05;4.63;;;;;;;16.23;100.00;101123.19;5090628;28;20217;-75
2023/10/08 03:31:04;;;;;;;8.93;5.00;;;;;;;16.15;100.00;101101.41;5082570;28;20052;-75
2023/10/08 03:33:35;;;;;;;7.95;4.57;;;;;;;16.18;100.00;101124.44;5061519;28;20048;-75
2023/10/08 03:36:14;;;;;;;10.45;4.70;;;;;;;16.14;100.00;101140.63;5074153;28;20040;-77
2023/10/08 03:38:50;;;;;;;9.05;4.40;;;;;;;16.01;100.00;101138.78;5073710;28;20151;-76
2023/10/08 03:41:28;;;;;;;11.30;4.40;;;;;;;16.11;100.00;101139.94;5075570;28;20052;-76
2023/10/08 03:44:01;;;;;;;7.35;4.38;;;;;;;16.13;100.00;101132.72;5068724;28;20044;-75
2023/10/08 03:46:39;;;;;;;10.55;5.03;;;;;;;16.07;100.00;101133.06;5056162;28;20637;-75
2023/10/08 03:49:15;;;;;;;8.40;4.80;;;;;;;16.01;100.00;101133.44;5074157;28;20048;-74
2023/10/08 03:51:43;;;;;;;10.00;5.07;;;;;;;15.98;100.00;101136.28;5103516;28;20472;-77
2023/10/08 03:54:29;;;;;;;7.45;4.38;;;;;;;16.00;100.00;101143.25;5075281;28;20044;-74
2023/10/08 03:56:58;;;;;;;7.18;4.50;;;;;;;15.94;100.00;101143.59;5097608;28;20567;-75
2023/10/08 03:59:31;;;;;;;8.65;4.75;;;;;;;15.93;100.00;101130.31;5057104;28;20044;-74
2023/10/08 04:02:13;;;;;;;7.93;4.60;;;;;;;15.93;100.00;101128.50;5069566;28;20131;-75
2023/10/08 04:04:56;;;;;;;6.60;4.13;;;;;;;15.88;100.00;101132.41;5067392;28;20040;-76
2023/10/08 04:07:28;;;;;;;8.27;4.30;;;;;;;15.84;100.00;101126.38;5092281;28;20052;-75
2023/10/08 04:10:20;;;;;;;8.30;4.32;;;;;;;15.92;100.00;101131.28;5076970;28;20222;-74
2023/10/08 04:12:50;;;;;;;6.82;4.25;;;;;;;15.91;100.00;101129.53;5066638;28;20050;-75
2023/10/08 04:15:19;;;;;;;;;;;;;;;15.90;100.00;101123.34;5088090;28;20040;-75
2023/10/08 04:17:52;;;;;;;8.35;4.22;;;;;;;15.88;100.00;101122.59;5087665;28;19955;-75
2023/10/08 04:20:38;;;;;;;8.38;4.45;;;;;;;15.87;100.00;101123.53;5091418;28;20177;-75
2023/10/08 04:23:18;;;;;;;9.90;4.88;;;;;;;15.84;100.00;101117.50;5049631;28;20052;-76
2023/10/08 04:25:54;;;;;;;8.00;4.50;;;;;;;15.85;100.00;101103.22;5073272;28;20056;-77
2023/10/08 04:28:28;;;;;;;8.27;3.97;;;;;;;15.83;100.00;101097.97;5071320;28;20159;-75
2023/10/08 04:31:00;;;;;;;9.18;4.60;;;;;;;15.82;100.00;101098.03;5093249;28;20129;-73
2023/10/08 04:33:33;;;;;;;9.60;4.90;;;;;;;15.86;100.00;101091.59;5070846;28;20044;-75
2023/10/08 04:36:03;;;;;;;10.15;4.88;;;;;;;15.83;100.00;101105.09;5094566;28;20040;-75
2023/10/08 04:38:39;;;;;;;7.15;4.30;;;;;;;15.65;100.00;101089.19;5092139;28;20064;-74
2023/10/08 04:41:09;;;;;;;7.85;4.30;;;;;;;15.71;100.00;101112.88;5095014;28;20068;-75
2023/10/08 04:43:38;;;;;;;9.43;4.85;;;;;;;15.64;100.00;101111.50;5078991;28;20044;-75
2023/10/08 04:46:19;;;;;;;10.55;5.18;;;;;;;15.55;100.00;101120.03;5073045;28;20045;-75
2023/10/08 04:48:49;;;;;;;9.07;4.90;;;;;;;15.50;100.00;101114.03;5075372;28;20463;-74
2023/10/08 04:51:22;;;;;;;12.88;5.00;;;;;;;15.51;100.00;101136.25;5072397;28;20044;-75
2023/10/08 04:53:53;;;;;;;7.80;4.88;;;;;;;15.44;100.00;101144.59;5087009;28;20579;-75
2023/10/08 04:56:23;;;;;;;10.05;5.18;;;;;;;15.41;100.00;101138.59;5075539;28;20048;-74
2023/10/08 04:58:51;;;;;;;9.48;4.82;;;;;;;15.37;100.00;101143.22;5076574;28;20040;-76
2023/10/08 05:01:27;;;;;;;9.82;4.50;;;;;;;15.37;100.00;101145.03;5073986;28;21047;-74
2023/10/08 05:04:26;;;;;;;8.10;4.75;;;;;;;15.37;100.00;101142.38;5084305;28;20066;-74
2023/10/08 05:07:17;;;;;;;8.55;5.07;;;;;;;15.39;100.00;101140.47;5089407;28;20109;-75
2023/10/08 05:09:52;;;;;;;8.18;4.55;;;;;;;15.35;100.00;101126.44;5069921;28;20052;-75
2023/10/08 05:12:34;;;;;;;8.68;4.78;;;;;;;15.43;100.00;101132.19;5074922;28;20483;-75
2023/10/08 05:15:32;;;;;;;11.50;5.20;;;;;;;15.45;100.00;101140.13;5065800;28;20058;-75
2023/10/08 05:18:19;;;;;;;11.25;4.78;;;;;;;15.43;100.00;101121.50;5071365;28;20051;-75
2023/10/08 05:21:03;;;;;;;8.45;5.03;;;;;;;15.44;100.00;101125.03;5077995;28;20094;-76
2023/10/08 05:24:08;;;;;;;7.65;5.00;;;;;;;15.45;100.00;101124.97;5073980;28;20044;-76
2023/10/08 05:26:45;;;;;;;6.70;4.55;;;;;;;15.44;100.00;101125.91;5043138;28;20548;-75
2023/10/08 05:29:51;;;;;;;9.77;4.93;;;;;;;15.41;100.00;101112.75;5094096;28;20044;-75
2023/10/08 05:32:38;;;;;;;9.75;4.82;;;;;;;15.43;100.00;101115.31;5073507;28;20062;-76
2023/10/08 05:38:12;;;;;;;9.05;5.22;;;;;;;15.43;100.00;101099.31;5089913;28;20416;-76
2023/10/08 05:43:48;;;;;;;13.30;5.65;;;;;;;15.52;100.00;101108.63;5055993;28;20066;-75
2023/10/08 05:46:35;;;;;;;9.20;5.30;;;;;;;15.51;100.00;101105.09;5085543;28;20078;-76
2023/10/08 05:49:15;;;;;;;9.68;5.40;;;;;;;15.53;100.00;101115.69;5074034;28;20040;-74
2023/10/08 05:51:45;;;;;;;10.18;5.30;;;;;;;15.55;100.00;101119.13;5053864;28;20508;-76
2023/10/08 05:54:35;;;;;;;10.18;4.95;;;;;;;15.51;100.00;101110.44;5067044;28;20130;-75
2023/10/08 05:57:14;;;;;;;9.20;5.00;;;;;;;15.48;100.00;101105.25;5088257;28;20078;-74
2023/10/08 06:00:21;;;;;;;10.50;5.43;;;;;;;15.53;100.00;101118.34;5084701;28;20048;-76
2023/10/08 06:03:00;;;;;;;7.53;5.03;;;;;;;15.58;100.00;101122.53;5070526;28;20071;-75
2023/10/08 06:05:33;;;;;;;11.63;5.10;;;;;;;15.56;100.00;101137.78;5065779;28;20079;-75
2023/10/08 06:08:12;;;;;;;8.30;5.25;;;;;;;15.54;100.00;101144.97;5038863;28;20052;-75
2023/10/08 06:10:56;;;;;;;9.40;5.43;;;;;;;15.49;100.00;101156.84;5092552;28;20036;-75
2023/10/08 06:13:42;;;;;;;10.73;6.03;;;;;;;15.49;100.00;101178.19;5072694;28;20460;-75
2023/10/08 06:16:13;;;;;;;11.25;5.32;;;;;;;15.54;100.00;101182.34;5091117;28;20044;-75
2023/10/08 06:18:41;;;;;;;9.13;5.50;;;;;;;15.58;100.00;101191.06;5073240;28;20040;-77
2023/10/08 06:21:11;;;;;;;10.07;5.47;;;;;;;15.60;100.00;101187.34;5072025;28;20439;-76
2023/10/08 06:23:42;;;;;;;11.57;5.72;;;;;;;15.58;100.00;101191.06;5084543;28;20567;-75
2023/10/08 06:26:15;;;;;;;9.35;4.97;;;;;;;15.56;100.00;101192.97;5072338;28;20577;-75
2023/10/08 06:28:45;;;;;;;7.60;4.70;;;;;;;15.51;100.00;101181.63;5056728;28;20048;-77
2023/10/08 06:31:16;;;;;;;7.00;4.18;;;;;;;15.60;100.00;101191.81;5076389;28;20039;-75
2023/10/08 06:33:45;;;;;;;10.77;5.38;;;;;;;15.67;100.00;101207.44;5078202;28;20049;-77
2023/10/08 06:36:18;;;;;;;11.25;5.18;;;;;;;15.66;100.00;101212.88;5070293;28;20044;-75
2023/10/08 06:38:49;;;;;;;7.78;4.53;;;;;;;15.67;100.00;101220.78;5085406;28;20137;-76
2023/10/08 06:41:28;;;;;;;13.48;5.57;;;;;;;15.71;100.00;101222.34;5089489;28;20036;-76
2023/10/08 06:44:18;;;;;;;12.80;5.55;;;;;;;15.78;100.00;101206.84;5067052;28;20039;-76
2023/10/08 06:46:48;;;;;;;8.93;5.22;;;;;;;15.88;100.00;101196.53;5067343;28;20054;-76
2023/10/08 06:49:18;;;;;;;10.20;5.10;;;;;;;15.96;100.00;101194.25;5072259;28;20127;-75
2023/10/08 06:51:48;;;;;;;;;;;;;;;16.06;100.00;101187.44;5058323;28;20044;-75
2023/10/08 06:54:17;;;;;;;9.35;4.90;;;;;;;16.13;100.00;101196.84;5065851;28;19956;-75
2023/10/08 06:56:51;;;;;;;11.48;4.97;;;;;;;16.11;100.00;101180.03;5083623;28;20062;-75
2023/10/08 06:59:22;;;;;;;9.23;5.13;;;;;;;16.21;100.00;101191.06;5087899;28;20051;-75
2023/10/08 07:01:51;;;;;;;8.38;4.63;;;;;;;16.25;100.00;101196.13;5071909;28;20047;-75
2023/10/08 07:04:30;;;;;;;9.70;5.00;;;;;;;16.21;100.00;101202.63;5082532;28;20052;-77
2023/10/08 07:07:01;;;;;;;10.13;4.95;;;;;;;16.28;100.00;101217.34;5069284;28;20082;-76
2023/10/08 07:09:30;;;;;;;11.65;5.18;;;;;;;16.34;100.00;101217.00;5066300;28;20052;-75
2023/10/08 07:12:05;;;;;;;10.73;4.53;;;;;;;16.39;100.00;101225.59;5067993;28;20112;-76
2023/10/08 07:14:34;;;;;;;10.85;5.03;;;;;;;16.30;100.00;101219.94;5067048;28;20569;-76
2023/10/08 07:17:06;;;;;;;9.52;4.50;;;;;;;16.39;100.00;101257.66;5061980;28;20048;-74
2023/10/08 07:19:39;;;;;;;8.85;4.20;;;;;;;16.42;100.00;101246.81;5063998;28;20050;-76
2023/10/08 07:22:22;;;;;;;10.10;5.03;;;;;;;16.38;100.00;101255.94;5053409;28;20082;-75
2023/10/08 07:24:52;;;;;;;11.10;5.00;;;;;;;16.36;100.00;101248.97;5076989;28;20067;-75
2023/10/08 07:27:29;;;;;;;11.40;5.20;;;;;;;16.34;100.00;101248.22;5069406;28;20523;-75
2023/10/08 07:30:01;;;;;;;12.73;5.40;;;;;;;16.27;100.00;101233.47;5053007;28;20048;-75
2023/10/08 07:32:32;;;;;;;9.45;5.28;;;;;;;16.42;100.00;101249.47;5087053;28;20057;-75
2023/10/08 07:35:14;;;;;;;11.97;5.20;;;;;;;16.52;100.00;101256.97;5034929;28;20056;-75
2023/10/08 07:37:42;;;;;;;11.30;4.90;;;;;;;16.69;100.00;101248.84;5065225;28;20583;-75
2023/10/08 07:40:13;;;;;;;7.85;5.10;;;;;;;16.74;100.00;101233.41;5065861;28;20063;-75
2023/10/08 07:42:44;;;;;;;9.48;5.25;;;;;;;16.79;100.00;101228.66;5068684;28;20050;-76
2023/10/08 07:45:17;;;;;;;6.63;4.63;;;;;;;16.81;100.00;101213.38;5064305;28;20063;-76
2023/10/08 07:47:47;;;;;;;9.73;5.10;;;;;;;16.99;100.00;101217.63;5074499;28;20044;-75
2023/10/08 07:50:16;;;;;;;10.37;4.90;;;;;;;17.04;100.00;101217.31;5075733;28;20044;-74
2023/10/08 07:52:44;;;;;;;10.35;5.68;;;;;;;17.07;100.00;101223.34;5066802;28;20041;-76
2023/10/08 07:55:17;;;;;;;8.60;4.88;;;;;;;17.15;100.00;101213.06;5080105;28;20051;-75
2023/10/08 07:57:48;;;;;;;9.70;5.05;;;;;;;17.24;100.00;101206.25;5078588;28;20040;-77
2023/10/08 08:00:25;;;;;;;9.30;6.00;;;;;;;17.37;100.00;101196.50;5059534;28;20035;-75
2023/10/08 08:02:57;;;;;;;9.02;5.47;;;;;;;17.48;100.00;101195.81;5078135;28;20075;-76
2023/10/08 08:05:27;;;;;;;9.27;4.82;;;;;;;17.56;100.00;101212.28;5080004;28;20504;-76
2023/10/08 08:07:56;;;;;;;9.57;5.78;;;;;;;17.60;100.00;101213.81;5091435;28;20044;-76
2023/10/08 08:10:25;;;;;;;10.70;5.27;;;;;;;17.62;100.00;101219.09;5061914;28;20052;-77
2023/10/08 08:12:56;;;;;;;10.60;5.38;;;;;;;17.57;100.00;101226.53;5075289;28;20044;-77
2023/10/08 08:15:27;;;;;;;10.98;4.63;;;;;;;17.49;100.00;101216.28;5070882;28;20054;-76
2023/10/08 08:17:55;;;;;;;;;;;;;;;17.60;100.00;101229.88;5083945;28;20389;-77
2023/10/08 08:20:34;;;;;;;11.65;4.35;;;;;;;17.66;100.00;101225.97;5092766;28;19916;-75
2023/10/08 08:23:06;;;;;;;10.23;5.35;;;;;;;17.70;100.00;101233.72;5068170;28;20504;-76
2023/10/08 08:25:45;;;;;;;8.95;4.68;;;;;;;17.70;100.00;101223.00;5064331;28;20101;-76
2023/10/08 08:28:20;;;;;;;11.82;5.22;;;;;;;17.59;100.00;101228.16;5074909;28;20048;-75
2023/10/08 08:30:52;;;;;;;9.00;4.47;;;;;;;17.58;100.00;101231.78;5076074;28;20040;-76
2023/10/08 08:33:23;;;;;;;13.27;5.38;;;;;;;17.55;100.00;101240.03;5075988;28;20055;-76
2023/10/08 08:36:05;;;;;;;9.38;5.53;;;;;;;17.51;100.00;101243.84;5070764;28;20059;-75
2023/10/08 08:38:36;;;;;;;10.00;5.18;;;;;;;17.51;100.00;101255.41;5073557;28;20048;-75
2023/10/08 08:41:06;;;;;;;11.73;4.88;;;;;;;17.68;100.00;101261.56;5070841;28;20064;-74
2023/10/08 08:43:43;;;;;;;12.23;5.10;;;;;;;17.88;100.00;101269.22;5072363;28;20048;-75
2023/10/08 08:46:13;;;;;;;11.20;5.10;;;;;;;17.98;100.00;101272.16;5065442;28;20131;-75
2023/10/08 08:48:44;;;;;;;10.48;5.10;;;;;;;18.01;100.00;101263.94;5076954;28;20051;-76
2023/10/08 08:51:13;;;;;;;9.82;4.72;;;;;;;18.12;100.00;101264.09;5070512;28;20131;-76
2023/10/08 08:53:42;;;;;;;9.43;5.28;;;;;;;18.27;100.00;101263.09;5085532;28;20045;-77
2023/10/08 08:56:12;;;;;;;;;;;;;;;18.47;100.00;101277.88;5062836;28;20189;-76
2023/10/08 08:58:43;;;;;;;12.15;5.05;;;;;;;18.62;100.00;101279.56;5066887;28;19943;-76
2023/10/08 09:01:15;;;;;;;9.00;4.40;;;;;;;18.68;100.00;101272.97;5073436;28;20055;-77
2023/10/08 09:03:43;;;;;;;8.82;5.25;;;;;;;18.73;100.00;101274.34;5075007;28;20076;-76
2023/10/08 09:06:12;;;;;;;12.38;4.95;;;;;;;18.64;100.00;101268.75;5069392;28;20058;-77
2023/10/08 09:08:45;;;;;;;9.18;5.15;;;;;;;18.73;100.00;101276.22;5074872;28;20040;-77
2023/10/08 09:11:18;;;;;;;10.75;4.80;;;;;;;18.71;100.00;101284.34;5071523;28;20051;-76
2023/10/08 09:13:51;;;;;;;10.40;4.45;;;;;;;18.76;100.00;101302.81;5072662;28;20066;-75
2023/10/08 09:16:23;;;;;;;9.57;4.38;;;;;;;18.90;100.00;101308.97;5079196;28;20459;-75
2023/10/08 09:18:52;;;;;;;10.15;4.88;;;;;;;18.83;100.00;101322.91;5076938;28;20059;-75
2023/10/08 09:21:23;;;;;;;8.82;4.80;;;;;;;18.50;100.00;101310.72;5093036;28;20147;-76
2023/10/08 09:23:55;;;;;;;9.73;4.72;;;;;;;18.43;100.00;101306.72;5092428;28;20044;-76
2023/10/08 09:26:25;;;;;;;10.80;4.75;;;;;;;18.38;100.00;101295.44;5065871;28;20044;-76
2023/10/08 09:28:55;;;;;;;10.38;4.85;;;;;;;18.40;100.00;101293.53;5073561;28;20480;-77
2023/10/08 09:31:25;;;;;;;10.68;4.63;;;;;;;18.42;100.00;101285.34;5072199;28;20052;-74
2023/10/08 09:33:55;;;;;;;8.55;4.40;;;;;;;18.45;100.00;101294.06;5071360;28;20040;-76
2023/10/08 09:36:31;;;;;;;8.13;4.90;;;;;;;18.58;100.00;101286.97;5067135;28;20071;-75
2023/10/08 09:39:04;;;;;;;10.85;5.10;;;;;;;18.76;100.00;101290.25;5067315;28;20048;-75
2023/10/08 09:41:35;;;;;;;11.20;4.90;;;;;;;18.73;100.00;101295.81;5074059;28;20055;-76
2023/10/08 09:44:10;;;;;;;15.43;5.28;;;;;;;18.71;100.00;101302.28;5068297;28;20064;-77
2023/10/08 09:46:47;;;;;;;8.77;4.85;;;;;;;18.80;100.00;101301.66;5075823;28;20043;-75
2023/10/08 09:49:18;;;;;;;8.60;4.65;;;;;;;18.94;100.00;101293.53;5086246;28;20053;-75
2023/10/08 09:51:50;;;;;;;9.27;4.85;;;;;;;19.18;100.00;101291.00;5091095;28;20389;-76
2023/10/08 09:54:25;;;;;;;13.45;5.07;;;;;;;19.41;100.00;101289.41;5077781;28;20074;-76
2023/10/08 09:56:55;;;;;;;9.15;4.50;;;;;;;19.52;100.00;101281.47;5053153;28;20045;-76
2023/10/08 09:59:25;;;;;;;10.53;4.87;;;;;;;19.51;100.00;101277.09;5092371;28;20115;-76
2023/10/08 10:01:59;;;;;;;15.68;4.97;;;;;;;19.27;100.00;101283.16;5071182;28;20054;-76
2023/10/08 10:04:31;;;;;;;9.43;5.07;;;;;;;19.10;100.00;101288.84;5068147;28;20048;-76
2023/10/08 10:07:12;;;;;;;10.98;5.15;;;;;;;19.05;100.00;101293.66;5071008;28;20044;-75
2023/10/08 10:09:44;;;;;;;9.70;4.78;;;;;;;19.08;100.00;101293.44;5082837;28;20183;-75
2023/10/08 10:12:19;;;;;;;8.82;4.63;;;;;;;19.12;100.00;101304.84;5066108;28;20106;-76
2023/10/08 10:14:49;;;;;;;6.60;3.90;;;;;;;19.07;100.00;101286.34;5068229;28;20509;-75
2023/10/08 10:17:22;;;;;;;13.02;4.85;;;;;;;19.15;100.00;101301.94;5055764;28;20052;-76
2023/10/08 10:20:13;;;;;;;9.00;4.35;;;;;;;19.15;100.00;101294.75;5067310;28;20119;-76
2023/10/08 10:22:47;;;;;;;10.13;4.82;;;;;;;19.13;100.00;101294.00;5053581;28;20109;-74
2023/10/08 10:25:18;;;;;;;9.63;5.32;;;;;;;18.98;100.00;101291.50;5081369;28;20036;-76
2023/10/08 10:28:23;;;;;;;11.30;5.20;;;;;;;18.94;100.00;101315.00;5080762;28;20041;-76
2023/10/08 10:30:55;;;;;;;15.23;5.60;;;;;;;18.82;100.00;101291.69;5072615;28;20041;-76
2023/10/08 10:33:30;;;;;;;12.15;5.43;;;;;;;18.79;100.00;101297.25;5079330;28;20048;-76
2023/10/08 10:36:02;;;;;;;9.35;4.82;;;;;;;18.75;100.00;101301.94;5065304;28;20067;-75
2023/10/08 10:38:30;;;;;;;14.05;5.60;;;;;;;18.76;100.00;101313.53;5086205;28;20074;-76
2023/10/08 10:41:08;;;;;;;13.65;5.15;;;;;;;18.71;100.00;101310.31;5090745;28;20071;-79
2023/10/08 10:43:52;;;;;;;11.30;5.28;;;;;;;18.69;100.00;101304.19;5078697;28;20044;-80
2023/10/08 10:46:30;;;;;;;10.60;5.07;;;;;;;18.80;100.00;101325.78;5080240;28;20053;-79
2023/10/08 10:49:17;;;;;;;9.93;5.00;;;;;;;19.05;100.00;101317.81;5089204;28;20040;-79
2023/10/08 10:51:52;;;;;;;14.15;5.72;;;;;;;19.44;100.00;101324.97;5089088;28;20147;-80
2023/10/08 10:54:23;;;;;;;12.27;5.00;;;;;;;19.77;100.00;101329.84;5083822;28;20052;-79
2023/10/08 10:57:05;;;;;;;10.77;5.00;;;;;;;20.03;100.00;101332.50;5074575;28;20525;-79
2023/10/08 10:59:37;;;;;;;10.27;4.97;;;;;;;20.32;100.00;101333.94;5082188;28;20040;-79
2023/10/08 11:02:21;;;;;;;10.18;4.93;;;;;;;20.44;100.00;101333.09;5068291;28;20051;-79
2023/10/08 11:04:51;;;;;;;10.65;4.97;;;;;;;20.63;100.00;101322.69;5100498;28;20044;-79
2023/10/08 11:07:21;;;;;;;14.75;5.30;;;;;;;20.64;100.00;101319.03;5091489;28;20066;-79
2023/10/08 11:09:51;;;;;;;10.02;5.10;;;;;;;20.63;99.38;101317.28;5103665;28;20028;-79
2023/10/08 11:12:22;;;;;;;10.98;4.97;;;;;;;20.62;100.00;101345.19;5104330;28;20115;-78
2023/10/08 11:14:58;;;;;;;10.75;5.40;;;;;;;20.48;100.00;101339.97;5080894;28;20472;-79
2023/10/08 11:17:29;;;;;;;9.63;4.63;;;;;;;20.48;100.00;101339.09;5074188;28;20449;-78
2023/10/08 11:19:57;;;;;;;12.93;5.72;;;;;;;20.47;100.00;101319.41;5086836;28;20040;-79
2023/10/08 11:22:44;;;;;;;9.52;5.28;;;;;;;20.63;100.00;101344.22;5086795;28;20048;-78
2023/10/08 11:25:24;;;;;;;12.07;4.72;;;;;;;20.85;99.19;101343.50;5079164;28;20074;-79
2023/10/08 11:28:01;;;;;;;9.45;5.10;;;;;;;20.97;97.94;101341.69;5058598;28;20047;-80
2023/10/08 11:30:31;;;;;;;9.27;4.88;;;;;;;20.94;99.65;101323.06;5077771;28;20044;-79
2023/10/08 11:33:06;;;;;;;;;;;;;;;20.82;98.69;101315.94;5083238;28;20407;-79
2023/10/08 11:35:35;;;;;;;12.85;5.35;;;;;;;20.84;98.03;101314.84;5086035;28;19924;-79
2023/10/08 11:38:08;;;;;;;13.25;6.50;;;;;;;20.73;99.31;101304.03;5081184;28;20052;-79
2023/10/08 11:40:51;;;;;;;15.02;6.43;;;;;;;20.58;100.00;101305.19;5103071;28;20048;-80
2023/10/08 11:43:21;;;;;;;12.25;5.50;;;;;;;20.48;100.00;101298.75;5082705;28;20064;-81
2023/10/08 11:45:54;;;;;;;12.25;6.15;;;;;;;20.18;100.00;101274.94;5072359;28;20035;-80
2023/10/08 11:48:28;;;;;;;14.15;5.85;;;;;;;20.17;100.00;101302.78;5084971;28;20070;-79
2023/10/08 11:50:57;;;;;;;11.90;5.82;;;;;;;20.10;100.00;101304.22;5084620;28;20051;-78
2023/10/08 11:53:25;;;;;;;10.88;5.75;;;;;;;20.03;100.00;101305.63;5067956;28;20082;-77
2023/10/08 11:55:57;;;;;;;10.60;5.38;;;;;;;20.01;100.00;101302.19;5103866;28;20056;-81
2023/10/08 11:58:37;;;;;;;11.70;5.22;;;;;;;20.01;100.00;101296.81;5086370;28;20052;-79